Time;durP1;ratioP1;P1;durP2;ratioP2;P2;SDS_P1;SDS_P2;PMS_P1;PMS_P2;Temp;Humidity;BMP_temperature;BMP_pressure;BME280_temperature;BME280_humidity;BME280_pressure;Samples;Min_cycle;Max_cycle;Signal;HPM_P1;HPM_P2
2024/04/16 00:02:07;;;;;;;6.40;3.50;;;;;;;7.42;82.56;98056.21;217724;1260;139535;-71
2024/04/16 00:07:09;;;;;;;4.20;2.70;;;;;;;7.34;82.67;98047.98;217802;1258;139988;-70
2024/04/16 00:12:10;;;;;;;1.80;1.70;;;;;;;7.27;82.46;97976.93;218542;1257;140316;-71
2024/04/16 00:17:12;;;;;;;2.60;2.10;;;;;;;7.17;82.66;97951.15;217178;1257;140543;-69
2024/04/16 00:22:13;;;;;;;2.60;2.10;;;;;;;7.08;82.96;97947.52;217315;1257;139713;-70
2024/04/16 00:27:15;;;;;;;1.90;1.40;;;;;;;7.00;82.95;97951.69;217652;1257;141063;-67
2024/04/16 00:32:16;;;;;;;4.40;2.10;;;;;;;6.95;82.81;97950.06;217135;1259;140418;-70
2024/04/16 00:37:19;;;;;;;2.20;2.00;;;;;;;6.88;83.65;97942.64;217184;1260;139857;-68
2024/04/16 00:42:21;;;;;;;3.10;2.10;;;;;;;6.87;83.75;97944.91;217943;1258;139842;-70
2024/04/16 00:47:23;;;;;;;3.00;1.70;;;;;;;6.87;83.74;97940.46;217104;1257;140073;-69
2024/04/16 00:52:28;;;;;;;3.60;2.70;;;;;;;6.85;84.17;97935.63;217436;1258;139679;-69
2024/04/16 00:57:30;;;;;;;3.70;2.40;;;;;;;6.84;84.39;97933.60;217278;1257;140778;-69
2024/04/16 01:02:33;;;;;;;3.50;2.60;;;;;;;6.85;84.46;97938.27;217411;1257;140295;-69
2024/04/16 01:07:34;;;;;;;2.80;2.10;;;;;;;6.82;84.14;97931.10;217443;1258;139561;-70
2024/04/16 01:12:43;;;;;;;2.30;1.70;;;;;;;6.76;83.78;97926.77;217468;1258;139364;-69
2024/04/16 01:17:44;;;;;;;4.40;2.20;;;;;;;6.63;84.15;97917.15;217177;1258;140479;-68
2024/04/16 01:22:50;;;;;;;2.90;2.30;;;;;;;6.56;84.01;97913.60;217167;1257;140013;-69
2024/04/16 01:27:51;;;;;;;2.80;2.20;;;;;;;6.47;84.23;97922.09;217633;1257;141275;-69
2024/04/16 01:32:53;;;;;;;4.10;3.20;;;;;;;6.47;84.62;97945.75;217091;1260;139716;-69
2024/04/16 01:37:55;;;;;;;2.60;2.20;;;;;;;6.51;85.07;97948.12;217263;1257;140197;-69
2024/04/16 01:43:00;;;;;;;2.80;2.60;;;;;;;6.55;85.00;97950.86;217275;1257;140448;-69
2024/04/16 01:48:01;;;;;;;3.30;3.00;;;;;;;6.57;85.43;97950.23;217389;1257;141283;-69
2024/04/16 01:53:03;;;;;;;2.40;2.20;;;;;;;6.60;85.06;97948.04;218779;1256;140852;-69
2024/04/16 01:58:04;;;;;;;3.20;2.30;;;;;;;6.64;85.37;97935.70;217879;1257;139211;-69
2024/04/16 02:03:06;;;;;;;4.90;3.70;;;;;;;6.67;85.78;97931.96;217627;1260;139592;-69
2024/04/16 02:08:07;;;;;;;3.60;2.90;;;;;;;6.70;85.79;97940.93;217396;1257;139897;-69
2024/04/16 02:13:08;;;;;;;5.00;3.30;;;;;;;6.69;86.19;97950.03;217598;1259;139518;-68
2024/04/16 02:18:09;;;;;;;4.40;3.90;;;;;;;6.70;86.24;97954.17;217418;1259;139764;-69
2024/04/16 02:23:11;;;;;;;4.90;4.40;;;;;;;6.75;86.35;97950.33;217662;1257;141213;-69
2024/04/16 02:28:12;;;;;;;3.60;3.30;;;;;;;6.80;86.61;97931.61;217739;1257;140306;-68
2024/04/16 02:33:15;;;;;;;9.10;5.30;;;;;;;6.85;87.00;97932.02;217969;1256;140290;-68
2024/04/16 02:38:16;;;;;;;5.20;4.60;;;;;;;6.89;87.05;97930.63;217776;1257;140423;-69
2024/04/16 02:43:18;;;;;;;10.60;7.00;;;;;;;6.94;87.27;97928.77;217697;1256;139228;-70
2024/04/16 02:48:19;;;;;;;7.60;4.40;;;;;;;6.99;87.63;97926.94;217698;1257;140706;-70
2024/04/16 02:53:21;;;;;;;8.10;6.00;;;;;;;7.00;87.37;97923.61;217945;1257;140353;-70
2024/04/16 02:58:22;;;;;;;12.90;6.10;;;;;;;7.01;87.59;97926.73;217465;1257;140052;-70
2024/04/16 03:03:24;;;;;;;5.00;4.60;;;;;;;7.03;87.63;97927.42;217526;1260;139510;-68
2024/04/16 03:08:25;;;;;;;6.80;5.50;;;;;;;7.06;88.00;97939.67;217376;1259;140156;-70
2024/04/16 03:13:28;;;;;;;8.80;5.60;;;;;;;7.09;88.06;97950.24;217478;1257;139857;-68
2024/04/16 03:18:29;;;;;;;7.30;5.00;;;;;;;7.12;88.01;97955.94;219134;1256;139597;-70
2024/04/16 03:23:31;;;;;;;7.30;6.10;;;;;;;7.16;87.62;97963.44;218321;1257;142274;-69
2024/04/16 03:28:33;;;;;;;5.90;4.80;;;;;;;7.21;87.85;97971.27;217875;1258;230820;-70
2024/04/16 03:33:34;;;;;;;3.80;2.10;;;;;;;7.14;86.71;97993.20;217430;1257;140179;-69
2024/04/16 03:38:36;;;;;;;1.20;1.20;;;;;;;6.90;85.66;98041.50;218477;1256;139537;-69
2024/04/16 03:43:37;;;;;;;1.60;1.50;;;;;;;6.63;85.51;98049.05;217562;1257;139987;-69
2024/04/16 03:48:39;;;;;;;1.60;1.50;;;;;;;6.39;85.06;98069.55;217897;1257;140071;-68
2024/04/16 03:53:41;;;;;;;1.70;1.60;;;;;;;6.20;85.19;98076.52;218356;1256;140131;-68
2024/04/16 03:59:04;;;;;;;2.10;1.80;;;;;;;6.09;85.36;98095.44;217580;1257;142389;-67
2024/04/16 04:04:06;;;;;;;1.80;1.70;;;;;;;5.98;84.61;98107.95;217431;1256;140558;-68
2024/04/16 04:09:07;;;;;;;2.20;2.00;;;;;;;5.85;84.00;98108.80;217341;1257;139746;-69
2024/04/16 04:14:08;;;;;;;2.40;2.20;;;;;;;5.68;83.94;98108.29;217532;1257;140203;-69
2024/04/16 04:19:10;;;;;;;2.60;2.40;;;;;;;5.58;84.17;98131.19;217613;1259;139611;-67
2024/04/16 04:24:16;;;;;;;2.20;2.10;;;;;;;5.50;83.73;98136.84;217411;1257;140344;-69
2024/04/16 04:29:18;;;;;;;3.20;2.60;;;;;;;5.43;83.65;98139.17;217597;1259;140133;-68
2024/04/16 04:34:20;;;;;;;2.30;2.10;;;;;;;5.41;83.48;98149.87;217522;1257;140729;-69
2024/04/16 04:39:21;;;;;;;1.60;1.50;;;;;;;5.50;83.56;98160.04;217308;1259;228889;-70
2024/04/16 04:44:22;;;;;;;2.30;2.10;;;;;;;5.56;83.17;98169.80;217554;1260;140562;-68
2024/04/16 04:49:24;;;;;;;3.30;2.10;;;;;;;5.69;82.94;98176.04;217329;1257;140280;-69
2024/04/16 04:54:26;;;;;;;1.90;1.70;;;;;;;5.80;82.40;98181.98;217886;1257;139253;-70
2024/04/16 04:59:28;;;;;;;3.00;1.70;;;;;;;5.93;82.11;98191.93;218308;1256;141089;-68
2024/04/16 05:04:30;;;;;;;2.10;1.50;;;;;;;6.09;81.68;98213.27;219088;1257;140717;-71
2024/04/16 05:09:31;;;;;;;1.90;1.70;;;;;;;6.27;81.55;98212.83;217783;1259;139549;-70
2024/04/16 05:14:33;;;;;;;2.00;1.40;;;;;;;6.42;81.35;98224.47;217997;1257;140397;-70
2024/04/16 05:19:35;;;;;;;1.40;1.20;;;;;;;6.50;80.96;98231.61;217501;1259;151101;-70
2024/04/16 05:24:37;;;;;;;1.90;1.20;;;;;;;6.62;80.62;98230.61;217608;1256;140934;-70
2024/04/16 05:29:39;;;;;;;1.80;1.40;;;;;;;6.70;79.84;98232.25;218282;1257;140110;-70
2024/04/16 05:34:41;;;;;;;1.80;1.60;;;;;;;6.63;79.58;98241.64;217420;1256;139758;-71
2024/04/16 05:39:42;;;;;;;1.50;1.40;;;;;;;6.60;79.18;98250.13;217704;1257;140486;-70
2024/04/16 05:44:44;;;;;;;2.70;2.10;;;;;;;6.59;79.29;98246.30;217840;1259;140340;-70
2024/04/16 05:49:45;;;;;;;1.90;1.70;;;;;;;6.54;78.81;98246.06;217520;1256;141004;-70
2024/04/16 05:54:46;;;;;;;2.60;1.70;;;;;;;6.53;78.92;98246.58;218111;1257;139939;-71
2024/04/16 05:59:48;;;;;;;3.80;2.40;;;;;;;6.64;79.03;98242.17;217464;1257;140733;-70
2024/04/16 06:04:49;;;;;;;1.40;1.40;;;;;;;6.89;78.14;98246.83;217507;1259;140159;-70
2024/04/16 06:09:51;;;;;;;9.50;3.70;;;;;;;7.08;77.43;98255.68;217236;1257;140277;-71
2024/04/16 06:14:52;;;;;;;3.60;2.10;;;;;;;7.31;76.26;98252.80;217569;1257;140327;-70
2024/04/16 06:19:53;;;;;;;2.30;2.10;;;;;;;7.58;76.31;98259.02;217517;1257;139609;-69
2024/04/16 06:24:54;;;;;;;5.40;2.80;;;;;;;7.75;75.45;98266.59;217420;1259;140700;-69
2024/04/16 06:29:56;;;;;;;1.40;1.30;;;;;;;7.81;74.86;98273.64;217660;1257;140214;-68
2024/04/16 06:34:58;;;;;;;4.00;1.20;;;;;;;7.89;74.73;98272.92;217518;1257;139601;-72
2024/04/16 06:39:59;;;;;;;3.20;1.40;;;;;;;8.09;74.87;98269.83;217549;1257;140330;-69
2024/04/16 06:45:00;;;;;;;2.90;1.40;;;;;;;8.71;74.43;98269.18;218163;1256;141486;-70
2024/04/16 06:50:02;;;;;;;1.30;1.20;;;;;;;9.54;73.52;98266.38;217736;1257;140602;-70
2024/04/16 06:55:04;;;;;;;1.90;1.70;;;;;;;9.86;72.42;98264.66;217812;1259;139959;-69
2024/04/16 07:00:06;;;;;;;2.20;1.90;;;;;;;9.67;71.37;98265.77;217415;1259;141070;-71
2024/04/16 07:05:09;;;;;;;1.60;1.50;;;;;;;9.53;71.11;98265.32;217714;1257;141402;-71
2024/04/16 07:10:11;;;;;;;4.00;1.80;;;;;;;9.83;70.77;98268.29;217385;1259;140433;-69
2024/04/16 07:15:12;;;;;;;7.70;3.30;;;;;;;10.19;69.75;98256.85;217337;1257;140287;-68
2024/04/16 07:20:13;;;;;;;4.40;1.70;;;;;;;10.35;68.83;98247.27;217171;1259;142201;-69
2024/04/16 07:25:15;;;;;;;3.70;2.10;;;;;;;10.26;68.11;98244.17;217113;1257;220913;-68
2024/04/16 07:30:18;;;;;;;3.20;1.70;;;;;;;10.21;67.98;98252.48;218033;1260;139545;-69
2024/04/16 07:35:19;;;;;;;5.60;2.00;;;;;;;10.40;67.37;98248.20;217664;1260;140315;-69
2024/04/16 07:40:21;;;;;;;5.20;1.70;;;;;;;10.64;67.15;98243.36;216860;1256;139240;-70
2024/04/16 07:45:22;;;;;;;3.70;1.60;;;;;;;10.91;66.67;98236.21;217692;1261;139637;-70
2024/04/16 07:50:23;;;;;;;1.70;1.50;;;;;;;11.19;66.30;98237.80;217080;1257;139291;-70
2024/04/16 07:55:25;;;;;;;4.80;1.00;;;;;;;11.39;65.46;98248.35;217153;1259;139784;-71
2024/04/16 08:00:28;;;;;;;1.30;1.20;;;;;;;11.38;63.71;98246.70;217421;1258;139052;-70
2024/04/16 08:05:29;;;;;;;1.20;1.00;;;;;;;11.26;63.02;98241.77;217167;1259;139571;-69
2024/04/16 08:10:30;;;;;;;1.30;0.90;;;;;;;11.41;62.96;98244.86;216895;1257;139919;-69
2024/04/16 08:15:32;;;;;;;1.20;1.10;;;;;;;11.63;62.68;98248.46;217285;1259;139860;-68
2024/04/16 08:20:33;;;;;;;0.90;0.70;;;;;;;11.72;61.46;98248.93;217841;1259;140363;-71
2024/04/16 08:25:35;;;;;;;1.60;0.90;;;;;;;11.91;61.63;98258.33;217325;1261;139352;-69
2024/04/16 08:30:37;;;;;;;1.30;1.10;;;;;;;12.02;61.32;98267.16;218115;1257;141056;-70
2024/04/16 08:35:39;;;;;;;1.40;1.30;;;;;;;12.09;60.32;98270.63;217578;1258;139645;-68
2024/04/16 08:40:40;;;;;;;5.30;1.80;;;;;;;11.71;59.88;98273.55;217770;1261;138953;-70
2024/04/16 08:45:43;;;;;;;2.90;1.50;;;;;;;11.43;59.76;98276.88;217293;1259;140027;-69
2024/04/16 08:50:46;;;;;;;4.70;2.30;;;;;;;11.10;59.93;98282.42;217733;1258;140145;-72
2024/04/16 08:55:47;;;;;;;1.80;1.70;;;;;;;10.74;59.40;98287.94;217382;1259;140261;-71
2024/04/16 09:00:49;;;;;;;1.70;1.30;;;;;;;10.59;59.73;98283.60;218258;1261;140472;-69
2024/04/16 09:05:51;;;;;;;4.20;1.90;;;;;;;10.33;59.59;98298.88;217155;1258;141932;-68
2024/04/16 09:10:52;;;;;;;1.40;1.10;;;;;;;10.09;59.67;98302.90;217117;1256;139476;-69
2024/04/16 09:15:53;;;;;;;2.20;1.50;;;;;;;9.91;59.95;98311.57;217984;1257;139163;-69
2024/04/16 09:20:55;;;;;;;4.40;2.40;;;;;;;9.80;60.02;98307.67;217562;1256;139088;-68
2024/04/16 09:26:01;;;;;;;1.00;1.00;;;;;;;9.77;60.31;98307.15;217536;1260;138971;-69
2024/04/16 09:31:03;;;;;;;2.30;1.20;;;;;;;9.93;60.57;98309.50;217324;1257;139926;-70
2024/04/16 09:36:13;;;;;;;2.50;1.00;;;;;;;9.84;60.41;98312.10;217571;1257;139162;-69
2024/04/16 09:41:15;;;;;;;2.20;1.20;;;;;;;9.77;60.25;98307.84;217468;1257;139530;-70
2024/04/16 09:46:18;;;;;;;1.10;1.10;;;;;;;9.89;59.96;98318.48;217754;1256;141453;-70
2024/04/16 09:51:20;;;;;;;1.40;1.10;;;;;;;10.30;60.25;98313.46;217604;1261;139342;-70
2024/04/16 09:56:26;;;;;;;2.70;1.50;;;;;;;10.95;60.04;98307.44;217496;1257;138716;-70
2024/04/16 10:01:33;;;;;;;1.40;1.30;;;;;;;11.38;59.20;98302.40;217568;1257;140224;-69
2024/04/16 10:06:35;;;;;;;2.20;2.00;;;;;;;11.13;58.27;98311.95;218204;1257;139601;-71
2024/04/16 10:11:36;;;;;;;3.40;1.50;;;;;;;10.69;58.15;98310.50;217708;1262;140280;-69
2024/04/16 10:16:38;;;;;;;9.10;2.40;;;;;;;10.60;58.54;98306.41;217529;1261;139964;-69
2024/04/16 10:21:41;;;;;;;1.60;1.10;;;;;;;10.94;59.14;98313.30;217590;1257;140252;-70
2024/04/16 10:26:45;;;;;;;2.60;2.00;;;;;;;11.25;58.98;98302.91;217253;1259;140259;-70
2024/04/16 10:31:51;;;;;;;1.00;1.00;;;;;;;11.41;58.81;98296.69;217257;1262;139089;-69
2024/04/16 10:36:56;;;;;;;2.90;2.10;;;;;;;11.32;57.99;98294.38;219814;1258;138915;-71
2024/04/16 10:41:58;;;;;;;1.70;0.90;;;;;;;11.20;57.51;98295.61;217228;1261;140915;-69
2024/04/16 10:47:01;;;;;;;0.90;0.90;;;;;;;11.06;57.15;98292.73;217246;1261;140125;-70
2024/04/16 10:52:10;;;;;;;1.50;1.40;;;;;;;11.47;57.84;98300.60;217161;1259;140804;-71
2024/04/16 10:57:11;;;;;;;2.40;1.00;;;;;;;11.80;57.96;98300.05;218201;1261;139408;-70
2024/04/16 11:02:12;;;;;;;2.00;1.40;;;;;;;11.52;57.22;98300.63;217623;1259;140346;-71
2024/04/16 11:07:13;;;;;;;3.90;3.50;;;;;;;11.17;56.84;98313.97;217086;1261;139766;-72
2024/04/16 11:12:30;;;;;;;1.70;1.00;;;;;;;11.04;56.96;98307.50;217169;1259;140223;-70
2024/04/16 11:17:31;;;;;;;6.10;2.00;;;;;;;11.20;57.03;98302.81;217162;1259;140137;-70
2024/04/16 11:22:32;;;;;;;1.00;0.90;;;;;;;11.21;56.36;98299.40;217199;1259;140799;-70
2024/04/16 11:27:37;;;;;;;1.70;1.60;;;;;;;11.12;56.41;98295.43;217793;1259;140038;-68
2024/04/16 11:32:39;;;;;;;2.70;1.50;;;;;;;11.07;56.29;98297.36;217324;1262;139038;-71
2024/04/16 11:37:44;;;;;;;1.90;1.60;;;;;;;11.10;56.70;98296.40;217717;1257;323505;-68
2024/04/16 11:42:45;;;;;;;32.40;4.30;;;;;;;11.06;56.61;98300.36;217396;1258;139180;-70
2024/04/16 11:47:47;;;;;;;5.10;2.00;;;;;;;10.90;56.39;98307.77;217327;1261;140430;-68
2024/04/16 11:52:48;;;;;;;2.70;1.20;;;;;;;10.91;56.56;98302.82;217346;1261;139547;-69
2024/04/16 11:57:49;;;;;;;2.20;1.70;;;;;;;11.30;56.78;98294.54;217548;1261;139563;-68
2024/04/16 12:02:51;;;;;;;4.30;1.70;;;;;;;11.69;57.04;98297.05;217186;1259;139460;-70
2024/04/16 12:07:52;;;;;;;1.30;1.10;;;;;;;11.88;56.47;98290.30;217490;1257;139379;-70
2024/04/16 12:12:53;;;;;;;2.30;1.70;;;;;;;12.11;56.16;98287.39;217337;1261;139431;-69
2024/04/16 12:17:55;;;;;;;2.20;1.50;;;;;;;12.35;56.10;98288.56;217648;1257;140516;-70
2024/04/16 12:22:56;;;;;;;1.10;0.80;;;;;;;12.55;55.86;98284.80;217719;1259;139282;-70
2024/04/16 12:27:57;;;;;;;2.00;1.60;;;;;;;12.74;55.56;98278.46;217942;1259;140369;-70
2024/04/16 12:32:59;;;;;;;2.30;1.30;;;;;;;12.65;55.27;98281.00;217891;1260;139287;-69
2024/04/16 12:38:01;;;;;;;2.30;1.10;;;;;;;12.48;54.60;98276.73;217648;1257;139487;-69
2024/04/16 12:43:03;;;;;;;6.00;2.60;;;;;;;12.32;54.94;98272.18;217689;1259;140277;-70
2024/04/16 12:48:06;;;;;;;4.30;3.40;;;;;;;12.13;54.71;98274.12;217810;1260;140453;-70
2024/04/16 12:53:08;;;;;;;3.20;2.10;;;;;;;11.91;54.53;98276.00;218151;1259;141334;-68
2024/04/16 12:58:10;;;;;;;7.30;3.90;;;;;;;11.87;54.50;98272.80;217495;1260;139160;-70
2024/04/16 13:03:12;;;;;;;1.40;1.10;;;;;;;11.91;54.49;98273.02;217466;1260;140573;-70
2024/04/16 13:08:13;;;;;;;9.50;3.10;;;;;;;12.02;54.71;98262.67;217613;1260;139435;-70
2024/04/16 13:13:16;;;;;;;7.70;4.00;;;;;;;12.15;54.84;98258.35;217462;1259;140724;-69
2024/04/16 13:18:18;;;;;;;4.40;1.20;;;;;;;12.16;54.45;98254.70;217574;1257;139891;-70
2024/04/16 13:23:19;;;;;;;0.50;0.50;;;;;;;11.96;54.04;98261.49;217563;1259;140316;-70
2024/04/16 13:28:22;;;;;;;1.70;1.10;;;;;;;11.70;53.83;98269.45;217861;1257;140038;-71
2024/04/16 13:33:27;;;;;;;4.50;1.70;;;;;;;11.49;54.11;98272.20;217425;1258;140397;-69
2024/04/16 13:38:29;;;;;;;2.90;1.80;;;;;;;11.33;54.79;98267.48;218303;1259;143313;-70
2024/04/16 13:43:31;;;;;;;2.60;1.90;;;;;;;11.42;55.06;98267.55;217977;1258;140154;-72
2024/04/16 13:48:34;;;;;;;2.40;1.10;;;;;;;11.42;55.23;98263.64;217384;1259;152342;-72
2024/04/16 13:53:41;;;;;;;1.10;0.80;;;;;;;11.29;55.36;98262.27;217624;1262;149180;-71
2024/04/16 13:58:49;;;;;;;1.40;1.40;;;;;;;10.91;55.38;98254.81;218042;1259;140515;-71
2024/04/16 14:03:51;;;;;;;1.20;1.10;;;;;;;10.77;55.92;98239.95;217659;1257;140076;-71
2024/04/16 14:08:59;;;;;;;5.40;1.60;;;;;;;10.90;56.25;98230.90;218052;1260;144516;-70
2024/04/16 14:14:05;;;;;;;2.60;1.50;;;;;;;10.88;56.13;98238.48;217586;1261;139800;-73
2024/04/16 14:19:19;;;;;;;;;;;;;;;;;;;;;
2024/04/16 14:24:28;;;;;;;4.00;1.50;;;;;;;10.60;56.47;98254.40;218483;1261;140387;-71
2024/04/16 14:29:30;;;;;;;1.10;1.00;;;;;;;10.89;57.17;98248.48;217346;1260;140078;-71
2024/04/16 14:34:32;;;;;;;2.20;1.20;;;;;;;11.17;57.44;98241.27;217772;1261;144714;-71
2024/04/16 14:39:36;;;;;;;2.30;2.00;;;;;;;11.38;57.42;98245.95;217389;1259;140338;-72
2024/04/16 14:44:37;;;;;;;1.50;1.20;;;;;;;11.46;57.13;98245.70;217507;1262;139310;-72
2024/04/16 14:49:41;;;;;;;4.20;1.50;;;;;;;11.65;56.94;98258.22;217552;1262;139987;-72
2024/04/16 14:54:43;;;;;;;4.00;1.30;;;;;;;11.87;56.75;98249.48;217172;1261;139577;-72
2024/04/16 14:59:44;;;;;;;4.40;1.00;;;;;;;12.13;55.97;98246.23;217435;1262;140248;-72
2024/04/16 15:04:46;;;;;;;1.80;1.00;;;;;;;12.33;54.68;98254.43;217303;1260;139753;-73
2024/04/16 15:09:48;;;;;;;1.20;1.10;;;;;;;12.39;54.29;98257.42;217301;1263;230791;-73
2024/04/16 15:14:52;;;;;;;8.70;2.20;;;;;;;12.32;54.24;98260.16;217282;1263;139464;-71
2024/04/16 15:19:54;;;;;;;5.60;2.10;;;;;;;12.04;54.06;98266.23;217751;1262;139241;-71
2024/04/16 15:24:55;;;;;;;3.90;2.10;;;;;;;11.80;54.37;98261.77;217142;1262;140548;-71
2024/04/16 15:30:03;;;;;;;1.00;1.00;;;;;;;11.57;54.47;98268.58;217147;1261;139270;-71
2024/04/16 15:35:09;;;;;;;2.50;1.70;;;;;;;11.33;54.22;98261.30;217188;1261;138935;-71
2024/04/16 15:40:10;;;;;;;2.70;1.40;;;;;;;11.05;54.62;98257.80;218424;1261;139536;-72
2024/04/16 15:45:15;;;;;;;2.80;1.40;;;;;;;10.80;54.92;98260.62;217768;1260;140244;-71
2024/04/16 15:50:17;;;;;;;4.10;1.80;;;;;;;10.63;55.38;98261.80;217136;1261;139594;-74
2024/04/16 15:55:18;;;;;;;1.70;1.60;;;;;;;10.42;55.81;98269.73;218427;1257;139846;-71
2024/04/16 16:00:25;;;;;;;4.60;1.20;;;;;;;10.21;56.02;98281.35;218719;1259;143026;-70
2024/04/16 16:05:29;;;;;;;1.70;1.60;;;;;;;10.07;56.14;98281.08;217868;1257;139941;-70
2024/04/16 16:10:38;;;;;;;1.40;1.30;;;;;;;10.02;56.41;98280.27;218861;1258;139308;-70
2024/04/16 16:15:41;;;;;;;1.50;1.40;;;;;;;9.95;56.63;98290.60;217859;1264;139265;-70
2024/04/16 16:20:42;;;;;;;3.90;1.30;;;;;;;10.00;56.96;98285.55;218417;1258;218940;-70
2024/04/16 16:25:44;;;;;;;2.20;1.00;;;;;;;10.02;56.73;98279.92;217075;1262;139402;-68
2024/04/16 16:30:46;;;;;;;2.20;1.00;;;;;;;10.01;57.03;98280.27;217668;1258;139240;-69
2024/04/16 16:35:47;;;;;;;2.40;0.90;;;;;;;9.91;56.91;98275.96;217224;1257;140141;-70
2024/04/16 16:40:49;;;;;;;3.20;2.10;;;;;;;9.68;56.83;98267.95;217564;1261;138639;-68
2024/04/16 16:45:51;;;;;;;0.90;0.90;;;;;;;9.38;57.05;98271.58;217143;1263;139816;-70
2024/04/16 16:50:52;;;;;;;1.90;0.90;;;;;;;9.16;57.69;98274.27;217746;1259;139828;-69
2024/04/16 16:55:55;;;;;;;2.10;1.00;;;;;;;9.00;57.83;98269.02;217432;1258;141153;-70
2024/04/16 17:00:57;;;;;;;1.20;1.10;;;;;;;8.81;58.17;98265.64;217188;1260;140932;-70
2024/04/16 17:05:59;;;;;;;1.50;1.20;;;;;;;8.58;58.33;98268.96;217250;1263;140219;-70
2024/04/16 17:11:01;;;;;;;0.90;0.90;;;;;;;8.31;58.86;98267.67;217450;1257;139827;-70
2024/04/16 17:16:03;;;;;;;0.80;0.80;;;;;;;8.11;59.34;98264.17;217182;1257;139894;-69
2024/04/16 17:21:04;;;;;;;1.40;1.30;;;;;;;7.92;60.11;98262.39;217758;1257;139785;-70
2024/04/16 17:26:06;;;;;;;0.80;0.80;;;;;;;7.77;60.78;98264.06;217286;1257;140419;-69
2024/04/16 17:31:10;;;;;;;2.70;1.40;;;;;;;7.64;60.99;98260.61;217027;1262;138813;-70
2024/04/16 17:36:12;;;;;;;2.50;1.70;;;;;;;7.49;61.32;98259.03;217201;1257;138710;-69
2024/04/16 17:41:14;;;;;;;3.10;2.50;;;;;;;7.37;61.85;98262.98;217319;1260;139030;-69
2024/04/16 17:46:15;;;;;;;2.70;1.70;;;;;;;7.25;62.25;98253.29;217271;1257;138691;-69
2024/04/16 17:51:17;;;;;;;29.10;5.40;;;;;;;7.12;62.56;98257.10;217546;1258;139843;-69
2024/04/16 17:56:19;;;;;;;4.30;1.90;;;;;;;6.99;63.02;98257.66;217498;1263;139264;-68
2024/04/16 18:01:20;;;;;;;4.80;1.90;;;;;;;6.91;63.77;98268.52;219245;1260;140082;-69
2024/04/16 18:06:23;;;;;;;4.40;2.10;;;;;;;6.82;64.16;98272.64;219211;1257;141481;-68
2024/04/16 18:11:25;;;;;;;4.10;2.80;;;;;;;6.75;64.31;98274.88;220042;1257;139893;-69
2024/04/16 18:16:27;;;;;;;3.30;2.10;;;;;;;6.67;64.65;98273.52;219732;1257;140063;-69
2024/04/16 18:21:28;;;;;;;3.50;2.60;;;;;;;6.58;65.31;98269.05;217134;1262;139732;-67
2024/04/16 18:26:29;;;;;;;4.10;2.60;;;;;;;6.50;65.73;98276.88;217696;1261;140762;-69
2024/04/16 18:31:32;;;;;;;2.80;2.30;;;;;;;6.47;65.80;98286.25;216817;1261;139245;-69
2024/04/16 18:36:33;;;;;;;5.60;3.20;;;;;;;6.43;66.21;98294.25;216996;1258;139687;-69
2024/04/16 18:41:34;;;;;;;4.60;4.00;;;;;;;6.37;66.62;98302.07;216861;1257;140532;-68
2024/04/16 18:46:36;;;;;;;3.40;2.60;;;;;;;6.28;66.77;98316.58;216795;1261;139985;-68
2024/04/16 18:51:38;;;;;;;3.90;2.70;;;;;;;6.23;67.18;98316.33;216911;1258;140451;-69
2024/04/16 18:56:39;;;;;;;4.60;3.10;;;;;;;6.20;67.25;98326.93;216782;1257;140141;-69
2024/04/16 19:01:40;;;;;;;4.70;2.80;;;;;;;6.21;68.03;98328.70;216970;1258;139977;-68
2024/04/16 19:06:42;;;;;;;12.80;5.40;;;;;;;6.20;68.00;98328.52;217075;1260;139367;-68
2024/04/16 19:11:45;;;;;;;6.70;5.00;;;;;;;6.16;68.79;98326.07;216951;1260;139644;-69
2024/04/16 19:16:48;;;;;;;5.90;3.80;;;;;;;6.09;68.63;98319.98;216925;1260;140712;-68
2024/04/16 19:21:50;;;;;;;6.40;3.00;;;;;;;6.01;68.80;98312.35;217089;1257;139658;-68
2024/04/16 19:26:51;;;;;;;5.60;3.60;;;;;;;5.94;69.10;98307.41;217136;1257;139382;-68
2024/04/16 19:31:53;;;;;;;3.20;2.60;;;;;;;5.89;69.85;98308.42;217232;1256;139752;-69
2024/04/16 19:36:55;;;;;;;6.50;4.00;;;;;;;5.88;69.87;98304.17;218399;1258;140460;-69
2024/04/16 19:41:57;;;;;;;6.50;4.70;;;;;;;5.83;70.33;98301.91;217609;1259;141078;-69
2024/04/16 19:46:58;;;;;;;5.90;3.80;;;;;;;5.81;70.77;98301.82;218360;1257;141448;-69
2024/04/16 19:52:00;;;;;;;6.60;4.00;;;;;;;5.78;71.06;98290.78;217891;1257;140264;-69
2024/04/16 19:57:03;;;;;;;4.80;3.50;;;;;;;5.73;71.45;98283.73;219827;1260;139896;-68
2024/04/16 20:02:07;;;;;;;4.80;2.90;;;;;;;5.72;71.74;98281.59;218406;1257;139845;-70
2024/04/16 20:07:09;;;;;;;9.40;3.90;;;;;;;5.66;71.96;98273.34;219285;1257;140339;-68
2024/04/16 20:12:11;;;;;;;4.60;4.00;;;;;;;5.62;72.32;98271.04;217019;1262;139586;-67
2024/04/16 20:17:13;;;;;;;8.20;4.10;;;;;;;5.59;72.33;98266.80;217819;1260;140446;-70
2024/04/16 20:22:14;;;;;;;5.30;3.30;;;;;;;5.56;72.59;98265.16;217203;1260;140743;-68
2024/04/16 20:27:17;;;;;;;5.80;3.80;;;;;;;5.51;73.05;98257.91;216904;1256;140548;-70
2024/04/16 20:32:19;;;;;;;5.40;3.90;;;;;;;5.47;72.74;98258.02;217156;1260;139447;-68
2024/04/16 20:37:20;;;;;;;4.10;3.30;;;;;;;5.43;72.91;98255.38;217179;1261;141087;-71
2024/04/16 20:42:22;;;;;;;10.70;6.00;;;;;;;5.36;73.52;98257.21;217790;1257;139516;-68
2024/04/16 20:47:24;;;;;;;6.20;4.30;;;;;;;5.30;73.40;98262.55;217215;1258;140067;-68
2024/04/16 20:52:26;;;;;;;8.40;5.00;;;;;;;5.24;73.52;98266.17;217358;1260;140433;-66
2024/04/16 20:57:28;;;;;;;8.40;5.80;;;;;;;5.17;73.55;98265.33;217064;1256;140501;-69
2024/04/16 21:03:29;;;;;;;12.10;5.20;;;;;;;5.12;74.11;98262.80;217363;1261;139827;-68
2024/04/16 21:08:31;;;;;;;5.00;4.20;;;;;;;5.08;73.98;98271.85;217270;1261;140537;-70
2024/04/16 21:13:33;;;;;;;5.80;3.40;;;;;;;5.01;74.29;98273.09;217235;1257;140578;-68
2024/04/16 21:18:35;;;;;;;6.80;4.30;;;;;;;4.96;74.13;98270.02;217393;1258;139426;-68
2024/04/16 21:23:38;;;;;;;4.90;3.90;;;;;;;4.92;74.43;98262.86;217390;1257;139780;-67
2024/04/16 21:28:39;;;;;;;7.50;4.10;;;;;;;4.85;74.33;98262.54;217651;1257;140364;-72
2024/04/16 21:33:40;;;;;;;5.30;3.30;;;;;;;4.79;74.72;98261.31;217207;1259;140529;-68
2024/04/16 21:38:42;;;;;;;7.40;3.80;;;;;;;4.72;74.48;98261.31;218305;1257;139705;-69
2024/04/16 21:43:47;;;;;;;8.10;4.10;;;;;;;4.63;74.59;98264.13;217355;1259;139897;-68
2024/04/16 21:48:50;;;;;;;7.40;4.20;;;;;;;4.53;74.71;98266.89;217085;1257;140781;-69
2024/04/16 21:53:51;;;;;;;7.40;4.60;;;;;;;4.46;75.08;98261.91;218481;1257;140417;-67
2024/04/16 21:58:52;;;;;;;5.90;3.80;;;;;;;4.38;75.25;98261.17;217226;1257;141637;-68
2024/04/16 22:03:54;;;;;;;6.40;4.90;;;;;;;4.32;75.27;98257.55;217210;1258;140001;-69
2024/04/16 22:08:55;;;;;;;9.00;3.90;;;;;;;4.24;75.63;98267.16;217361;1257;139469;-69
2024/04/16 22:13:57;;;;;;;6.50;4.70;;;;;;;4.20;75.66;98269.86;217218;1258;155069;-69
2024/04/16 22:18:58;;;;;;;15.20;6.60;;;;;;;4.14;75.81;98266.92;217407;1257;139779;-69
2024/04/16 22:24:00;;;;;;;8.10;6.40;;;;;;;4.09;76.11;98266.48;217285;1259;140131;-69
2024/04/16 22:29:01;;;;;;;7.80;6.10;;;;;;;4.08;76.31;98265.60;217323;1256;139461;-68
2024/04/16 22:34:03;;;;;;;7.80;4.90;;;;;;;4.08;76.53;98271.41;217388;1257;140448;-69
2024/04/16 22:39:04;;;;;;;8.60;4.80;;;;;;;4.06;76.61;98271.79;217902;1257;139616;-68
2024/04/16 22:44:06;;;;;;;10.10;5.20;;;;;;;4.06;76.62;98277.64;217536;1257;140256;-67
2024/04/16 22:49:07;;;;;;;6.60;4.60;;;;;;;4.03;76.65;98276.83;217509;1258;140294;-68
2024/04/16 22:54:08;;;;;;;7.20;4.30;;;;;;;4.00;76.69;98278.54;217166;1260;139795;-69
2024/04/16 22:59:10;;;;;;;6.10;4.60;;;;;;;3.95;76.63;98286.72;217271;1258;140996;-69
2024/04/16 23:04:12;;;;;;;5.30;3.90;;;;;;;3.91;76.71;98288.58;217379;1257;139868;-69
2024/04/16 23:09:13;;;;;;;5.20;4.40;;;;;;;3.86;76.83;98289.82;217100;1257;139674;-67
2024/04/16 23:14:14;;;;;;;10.50;5.80;;;;;;;3.83;76.93;98287.91;217890;1257;139937;-66
2024/04/16 23:19:15;;;;;;;12.30;7.00;;;;;;;3.81;76.99;98290.70;217303;1257;140061;-69
2024/04/16 23:24:16;;;;;;;11.50;7.40;;;;;;;3.81;77.07;98286.89;217748;1257;139487;-67